Time;durP1;ratioP1;P1;durP2;ratioP2;P2;SDS_P1;SDS_P2;PMS_P1;PMS_P2;Temp;Humidity;BMP_temperature;BMP_pressure;BME280_temperature;BME280_humidity;BME280_pressure;Samples;Min_cycle;Max_cycle;Signal;HPM_P1;HPM_P2
2022/09/12 00:02:08;;;;;;;11.95;10.80;;;15.20;99.90;;;;;;6271727;22;20019;-87
2022/09/12 00:04:37;;;;;;;11.98;9.88;;;14.70;99.90;;;;;;6245412;22;20090;-87
2022/09/12 00:07:06;;;;;;;9.77;8.77;;;14.40;99.90;;;;;;6220683;22;20342;-87
2022/09/12 00:09:31;;;;;;;8.45;7.60;;;15.20;99.90;;;;;;6223698;22;20141;-86
2022/09/12 00:11:57;;;;;;;8.63;7.82;;;15.10;99.90;;;;;;6223196;22;20065;-86
2022/09/12 00:14:25;;;;;;;8.82;7.93;;;15.10;99.90;;;;;;6273058;22;20160;-87
2022/09/12 00:16:56;;;;;;;9.82;8.82;;;15.00;99.90;;;;;;6247285;22;20052;-86
2022/09/12 00:19:22;;;;;;;7.95;7.15;;;14.80;99.90;;;;;;6272911;22;20022;-86
2022/09/12 00:21:48;;;;;;;6.88;6.25;;;14.90;99.90;;;;;;6272654;22;20438;-86
2022/09/12 00:24:17;;;;;;;6.90;6.05;;;14.90;99.90;;;;;;6251003;22;20556;-86
2022/09/12 00:26:42;;;;;;;6.55;5.90;;;14.90;99.90;;;;;;6253030;22;20048;-86
2022/09/12 00:29:18;;;;;;;6.30;5.70;;;14.80;99.90;;;;;;6274831;22;20521;-86
2022/09/12 00:31:44;;;;;;;7.00;5.88;;;13.90;99.90;;;;;;6247203;22;20411;-87
2022/09/12 00:34:11;;;;;;;7.70;6.15;;;14.80;99.90;;;;;;6246848;22;20015;-86
2022/09/12 00:36:38;;;;;;;8.10;7.30;;;14.70;99.90;;;;;;6248315;22;20023;-86
2022/09/12 00:39:08;;;;;;;9.15;8.23;;;14.70;99.90;;;;;;6246698;22;20438;-87
2022/09/12 00:41:37;;;;;;;9.02;8.13;;;14.70;99.90;;;;;;6246743;22;20046;-87
2022/09/12 00:44:11;;;;;;;8.30;7.50;;;14.70;99.90;;;;;;6247693;22;20105;-86
2022/09/12 00:47:13;;;;;;;9.65;8.65;;;14.70;99.90;;;;;;6247112;22;20026;-87
2022/09/12 00:49:50;;;;;;;10.15;9.10;;;14.60;99.90;;;;;;6236553;22;20380;-86
2022/09/12 00:52:28;;;;;;;10.52;8.85;;;14.00;99.90;;;;;;6247282;22;20026;-87
2022/09/12 00:55:01;;;;;;;8.68;7.78;;;14.60;99.90;;;;;;6247403;22;20026;-87
2022/09/12 00:57:34;;;;;;;10.02;8.98;;;14.60;99.90;;;;;;6263072;22;20012;-86
2022/09/12 01:00:18;;;;;;;9.65;8.63;;;14.60;99.90;;;;;;6242162;22;20478;-87
2022/09/12 01:02:48;;;;;;;8.45;7.60;;;14.50;99.90;;;;;;6241709;22;20035;-87
2022/09/12 01:05:15;;;;;;;8.68;7.78;;;14.40;99.90;;;;;;6216237;22;20452;-86
2022/09/12 01:07:48;;;;;;;7.90;7.20;;;14.40;99.90;;;;;;6217037;22;20347;-86
2022/09/12 01:10:15;;;;;;;8.48;7.68;;;14.10;99.90;;;;;;6215654;22;20030;-86
2022/09/12 01:12:42;;;;;;;8.40;7.53;;;14.30;99.90;;;;;;6216340;22;20079;-87
2022/09/12 01:15:08;;;;;;;8.30;7.50;;;14.40;99.90;;;;;;6216460;22;20015;-86
2022/09/12 01:17:56;;;;;;;9.88;8.88;;;14.30;99.90;;;;;;6216926;22;20403;-86
2022/09/12 01:20:28;;;;;;;8.35;7.55;;;14.30;99.90;;;;;;6216636;22;20011;-87
2022/09/12 01:23:31;;;;;;;9.20;8.30;;;14.30;99.90;;;;;;6217474;22;20020;-85
2022/09/12 01:26:34;;;;;;;9.10;8.18;;;14.30;99.90;;;;;;6242423;22;20503;-87
2022/09/12 01:29:05;;;;;;;8.45;7.18;;;14.30;99.90;;;;;;6217126;22;20405;-86
2022/09/12 01:31:47;;;;;;;8.27;7.47;;;14.30;99.90;;;;;;6216891;22;20019;-86
2022/09/12 01:34:37;;;;;;;9.27;8.38;;;14.30;99.90;;;;;;6216267;22;20446;-86
2022/09/12 01:37:31;;;;;;;9.77;8.77;;;14.30;99.90;;;;;;6217124;22;20257;-86
2022/09/12 01:40:15;;;;;;;9.63;8.63;;;14.30;99.90;;;;;;6217351;22;20068;-87
2022/09/12 01:43:01;;;;;;;10.13;9.07;;;14.30;99.90;;;;;;6242193;22;20020;-86
2022/09/12 01:45:46;;;;;;;10.63;9.23;;;14.20;99.90;;;;;;6241553;22;20411;-86
2022/09/12 01:48:25;;;;;;;10.25;9.07;;;14.30;99.90;;;;;;6215776;22;20038;-86
2022/09/12 01:51:21;;;;;;;11.13;9.65;;;13.60;99.90;;;;;;6216754;22;20022;-85
2022/09/12 01:53:56;;;;;;;10.10;9.10;;;14.30;99.90;;;;;;6241977;22;20046;-86
2022/09/12 01:56:25;;;;;;;10.07;8.77;;;13.60;99.90;;;;;;6215260;22;20016;-86
2022/09/12 01:58:55;;;;;;;9.20;8.18;;;14.30;99.90;;;;;;6241662;22;20316;-87
2022/09/12 02:01:28;;;;;;;10.65;9.52;;;14.20;99.90;;;;;;6246148;22;20084;-86
2022/09/12 02:04:21;;;;;;;11.70;10.60;;;13.70;99.90;;;;;;6246143;22;20462;-86
2022/09/12 02:07:03;;;;;;;11.18;9.77;;;14.30;99.90;;;;;;6243671;22;20811;-86
2022/09/12 02:09:35;;;;;;;14.00;10.68;;;14.30;99.90;;;;;;6270168;22;20488;-87
2022/09/12 02:12:02;;;;;;;12.25;11.05;;;14.30;99.90;;;;;;6272175;22;20027;-87
2022/09/12 02:14:35;;;;;;;12.05;10.85;;;13.80;99.90;;;;;;6247692;22;20053;-85
2022/09/12 02:17:12;;;;;;;11.68;10.48;;;14.30;99.90;;;;;;6246603;22;20015;-85
2022/09/12 02:19:55;;;;;;;11.48;10.20;;;14.30;99.90;;;;;;6222172;22;20019;-86
2022/09/12 02:22:25;;;;;;;11.23;10.00;;;14.30;99.90;;;;;;6246985;22;20019;-86
2022/09/12 02:24:56;;;;;;;12.38;11.07;;;14.30;99.90;;;;;;6247784;22;20616;-87
2022/09/12 02:27:36;;;;;;;13.40;12.02;;;14.30;99.90;;;;;;6270527;22;20019;-86
2022/09/12 02:30:06;;;;;;;13.25;10.38;;;14.30;99.90;;;;;;6246495;22;20030;-85
2022/09/12 02:32:53;;;;;;;12.35;10.85;;;14.20;99.90;;;;;;6271739;22;20180;-87
2022/09/12 02:35:40;;;;;;;13.55;10.73;;;13.60;99.90;;;;;;6246228;22;20104;-86
2022/09/12 02:38:28;;;;;;;;;;;;;;;;;;;;;
2022/09/12 02:40:54;;;;;;;13.57;10.93;;;14.20;99.90;;;;;;6272061;22;20037;-86
2022/09/12 02:43:20;;;;;;;11.75;10.55;;;14.20;99.90;;;;;;6246234;22;20794;-87
2022/09/12 02:45:46;;;;;;;13.27;11.40;;;13.90;99.90;;;;;;6271261;22;20019;-87
2022/09/12 02:48:23;;;;;;;12.65;10.98;;;14.20;99.90;;;;;;6246935;22;20066;-86
2022/09/12 02:50:49;;;;;;;11.45;10.18;;;14.20;99.90;;;;;;6256553;22;20026;-87
2022/09/12 02:53:15;;;;;;;12.85;10.45;;;14.20;99.90;;;;;;6255929;22;20019;-85
2022/09/12 02:55:43;;;;;;;14.82;12.20;;;14.20;99.90;;;;;;6244164;22;20056;-87
2022/09/12 02:58:18;;;;;;;13.35;11.32;;;14.20;99.90;;;;;;6226513;22;20347;-87
2022/09/12 03:01:07;;;;;;;14.77;12.30;;;14.20;99.90;;;;;;6214655;22;20027;-86
2022/09/12 03:04:01;;;;;;;14.38;12.57;;;14.20;99.90;;;;;;6214489;22;20099;-86
2022/09/12 03:07:16;;;;;;;14.52;12.88;;;14.10;99.90;;;;;;6214517;22;20551;-86
2022/09/12 03:09:46;;;;;;;13.50;11.88;;;14.20;99.90;;;;;;6170955;22;20019;-86
2022/09/12 03:12:49;;;;;;;14.90;13.18;;;14.10;99.90;;;;;;6214030;22;20458;-86
2022/09/12 03:15:40;;;;;;;14.52;13.02;;;14.20;99.90;;;;;;6215591;22;20023;-86
2022/09/12 03:18:28;;;;;;;15.05;13.50;;;14.20;99.90;;;;;;6215047;22;20715;-86
2022/09/12 03:20:57;;;;;;;15.30;13.55;;;14.20;99.90;;;;;;6241535;22;20501;-85
2022/09/12 03:24:05;;;;;;;16.40;13.55;;;14.20;99.90;;;;;;6214944;22;20517;-86
2022/09/12 03:26:46;;;;;;;16.60;13.68;;;14.20;99.90;;;;;;6196659;22;20054;-86
2022/09/12 03:29:13;;;;;;;16.90;15.07;;;14.30;99.90;;;;;;6216201;22;20020;-85
2022/09/12 03:31:51;;;;;;;17.40;14.52;;;14.30;99.90;;;;;;6215417;22;20107;-86
2022/09/12 03:34:18;;;;;;;16.02;14.32;;;14.30;99.90;;;;;;6240492;22;20528;-87
2022/09/12 03:36:45;;;;;;;18.35;14.82;;;14.40;99.90;;;;;;6214828;22;20024;-85
2022/09/12 03:39:11;;;;;;;15.63;14.02;;;14.40;99.90;;;;;;6215402;22;20031;-86
2022/09/12 03:41:36;;;;;;;17.15;15.35;;;14.50;99.90;;;;;;6214232;22;20263;-87
2022/09/12 03:44:03;;;;;;;19.13;15.70;;;14.50;99.90;;;;;;6215607;22;20027;-86
2022/09/12 03:46:37;;;;;;;18.23;15.23;;;14.50;99.90;;;;;;6214206;22;20020;-85
2022/09/12 03:49:02;;;;;;;17.15;14.38;;;14.50;99.90;;;;;;6214886;22;20026;-85
2022/09/12 03:51:28;;;;;;;19.67;15.98;;;14.50;99.90;;;;;;6214618;22;20020;-86
2022/09/12 03:53:54;;;;;;;19.20;15.85;;;14.00;99.90;;;;;;6191056;22;20023;-87
2022/09/12 03:56:20;;;;;;;18.63;15.95;;;14.60;99.90;;;;;;6214451;22;20055;-87
2022/09/12 03:58:46;;;;;;;18.00;16.05;;;14.60;99.90;;;;;;6214408;22;20026;-86
2022/09/12 04:01:17;;;;;;;16.63;14.82;;;14.70;99.90;;;;;;6214925;22;20020;-86
2022/09/12 04:03:45;;;;;;;19.35;16.45;;;14.70;99.90;;;;;;6240955;22;20018;-86
2022/09/12 04:06:20;;;;;;;17.83;15.93;;;14.70;99.90;;;;;;6215130;22;20120;-87
2022/09/12 04:08:55;;;;;;;18.92;16.80;;;14.10;99.90;;;;;;6215703;22;20054;-86
2022/09/12 04:11:21;;;;;;;18.70;15.95;;;14.80;99.90;;;;;;6214621;22;20020;-87
2022/09/12 04:13:50;;;;;;;19.73;15.10;;;14.80;99.90;;;;;;6241110;22;20016;-86
2022/09/12 04:16:19;;;;;;;19.85;15.88;;;14.90;99.90;;;;;;6240288;22;20328;-86
2022/09/12 04:18:45;;;;;;;21.92;16.35;;;14.10;99.90;;;;;;6239344;22;20106;-85
2022/09/12 04:21:14;;;;;;;19.17;16.52;;;14.90;99.90;;;;;;6239723;22;20019;-86
2022/09/12 04:23:43;;;;;;;20.42;14.93;;;14.90;99.90;;;;;;6240090;22;20026;-86
2022/09/12 04:26:12;;;;;;;17.20;14.70;;;14.90;99.90;;;;;;6214846;22;20020;-86
2022/09/12 04:28:38;;;;;;;19.42;15.60;;;15.00;99.90;;;;;;6215121;22;20023;-87
2022/09/12 04:31:14;;;;;;;18.35;15.95;;;15.00;99.90;;;;;;6215828;22;20586;-85
2022/09/12 04:33:40;;;;;;;16.30;14.60;;;15.00;99.90;;;;;;6215450;22;20015;-85
2022/09/12 04:36:17;;;;;;;17.25;14.65;;;15.00;99.90;;;;;;6215366;22;20023;-86
2022/09/12 04:38:45;;;;;;;19.05;16.63;;;15.00;99.90;;;;;;6239112;22;20020;-86
2022/09/12 04:41:15;;;;;;;19.42;16.25;;;15.00;99.90;;;;;;6216049;22;20019;-87
2022/09/12 04:43:50;;;;;;;20.25;18.05;;;15.10;99.90;;;;;;6215371;22;20426;-87
2022/09/12 04:46:19;;;;;;;19.85;16.15;;;15.10;99.90;;;;;;6216107;22;20023;-85
2022/09/12 04:48:48;;;;;;;23.13;18.88;;;15.10;99.90;;;;;;6190934;22;20023;-87
2022/09/12 04:51:22;;;;;;;19.25;16.85;;;15.20;99.90;;;;;;6215449;22;20359;-86
2022/09/12 04:53:50;;;;;;;20.95;17.80;;;15.20;99.90;;;;;;6215392;22;20019;-86
2022/09/12 04:56:18;;;;;;;21.60;18.20;;;15.20;99.90;;;;;;6217448;22;20098;-85
2022/09/12 04:58:45;;;;;;;21.85;17.92;;;15.30;99.90;;;;;;6265614;22;20026;-85
2022/09/12 05:01:18;;;;;;;23.88;19.25;;;15.40;99.90;;;;;;6248199;22;20507;-86
2022/09/12 05:03:51;;;;;;;26.75;20.65;;;15.30;99.90;;;;;;6247228;22;20019;-85
2022/09/12 05:06:21;;;;;;;22.90;18.50;;;16.00;99.90;;;;;;6247005;22;20012;-86
2022/09/12 05:08:47;;;;;;;21.88;18.10;;;15.80;99.90;;;;;;6271181;22;20497;-86
2022/09/12 05:11:20;;;;;;;20.55;18.27;;;15.50;99.90;;;;;;6247854;22;20023;-86
2022/09/12 05:13:46;;;;;;;24.80;20.50;;;15.50;99.90;;;;;;6272626;22;20019;-87
2022/09/12 05:16:16;;;;;;;24.45;19.30;;;15.60;99.90;;;;;;6250581;22;20019;-86
2022/09/12 05:18:43;;;;;;;18.90;16.58;;;15.50;99.90;;;;;;6249532;22;20317;-85
2022/09/12 05:21:12;;;;;;;24.80;19.85;;;15.50;99.90;;;;;;6247783;22;20023;-85
2022/09/12 05:23:41;;;;;;;21.88;18.88;;;15.60;99.90;;;;;;6247708;22;20134;-86
2022/09/12 05:27:03;;;;;;;23.95;19.13;;;15.60;99.90;;;;;;6279358;22;20597;-90
2022/09/12 05:33:10;;;;;;;24.27;19.52;;;15.60;99.90;;;;;;6231265;22;20019;-89
2022/09/12 05:35:45;;;;;;;19.63;17.53;;;15.70;99.90;;;;;;6252124;22;20023;-90
2022/09/12 05:38:37;;;;;;;;;;;;;;;;;;;;;
2022/09/12 05:41:37;;;;;;;24.83;19.33;;;15.60;99.90;;;;;;6278060;22;20449;-89
2022/09/12 05:44:14;;;;;;;25.45;20.05;;;15.40;99.90;;;;;;6228792;22;20011;-88
2022/09/12 05:47:13;;;;;;;24.27;19.77;;;15.70;99.90;;;;;;6276136;22;20020;-90
2022/09/12 05:50:32;;;;;;;;;;;;;;;;;;;;;
2022/09/12 05:53:40;;;;;;;22.35;17.80;;;15.70;99.90;;;;;;6171419;22;20016;-89
2022/09/12 05:56:26;;;;;;;21.00;17.70;;;15.70;99.90;;;;;;6259280;22;20027;-88
2022/09/12 05:59:43;;;;;;;;;;;;;;;;;;;;;
2022/09/12 06:05:30;;;;;;;25.42;19.48;;;16.00;99.90;;;;;;6179199;22;20099;-84
2022/09/12 06:07:56;;;;;;;25.35;19.48;;;16.00;99.90;;;;;;6216468;22;20019;-84
2022/09/12 06:10:22;;;;;;;23.63;19.88;;;16.00;99.90;;;;;;6190617;22;20022;-84
2022/09/12 06:12:50;;;;;;;23.38;18.38;;;16.00;99.90;;;;;;6240715;22;20391;-84
2022/09/12 06:15:17;;;;;;;21.80;18.02;;;15.30;99.90;;;;;;6217491;22;20023;-82
2022/09/12 06:17:43;;;;;;;22.08;18.55;;;16.10;99.90;;;;;;6240300;22;20024;-85
2022/09/12 06:20:08;;;;;;;22.05;18.65;;;15.30;99.90;;;;;;6217007;22;20098;-86
2022/09/12 06:22:35;;;;;;;23.02;17.70;;;16.20;99.90;;;;;;6191820;22;20743;-85
2022/09/12 06:25:00;;;;;;;23.52;18.77;;;16.10;99.90;;;;;;6190322;22;20012;-84
2022/09/12 06:27:26;;;;;;;21.70;18.20;;;16.20;99.90;;;;;;6215454;22;20043;-84
2022/09/12 06:30:09;;;;;;;24.30;19.48;;;15.80;99.90;;;;;;6215171;22;20015;-84
2022/09/12 06:32:44;;;;;;;22.60;18.50;;;16.60;99.90;;;;;;6241188;22;20020;-84
2022/09/12 06:35:13;;;;;;;23.40;18.35;;;16.30;99.90;;;;;;6214764;22;20020;-83
2022/09/12 06:37:42;;;;;;;20.27;18.05;;;16.30;99.90;;;;;;6240849;22;20070;-85
2022/09/12 06:40:11;;;;;;;18.70;16.65;;;16.30;99.90;;;;;;6216163;22;20027;-83
2022/09/12 06:42:39;;;;;;;18.10;16.20;;;16.40;99.90;;;;;;6190564;22;20046;-85
2022/09/12 06:45:08;;;;;;;19.00;15.98;;;16.40;99.90;;;;;;6215521;22;20023;-85
2022/09/12 06:47:34;;;;;;;18.20;16.33;;;16.40;99.90;;;;;;6215278;22;20026;-85
2022/09/12 06:50:03;;;;;;;18.35;16.00;;;16.40;99.90;;;;;;6242604;22;20073;-83
2022/09/12 06:52:29;;;;;;;18.50;15.40;;;15.90;99.90;;;;;;6190822;22;20019;-83
2022/09/12 06:54:55;;;;;;;17.95;14.25;;;16.50;99.90;;;;;;6240897;22;20114;-86
2022/09/12 06:57:21;;;;;;;18.73;15.98;;;16.60;99.90;;;;;;6242241;22;20097;-84
2022/09/12 06:59:47;;;;;;;17.23;15.02;;;16.60;99.90;;;;;;6246316;22;20055;-83
2022/09/12 07:02:15;;;;;;;20.17;15.63;;;16.70;99.90;;;;;;6246717;22;20394;-84
2022/09/12 07:04:44;;;;;;;17.85;14.85;;;16.80;99.90;;;;;;6220246;22;20019;-85
2022/09/12 07:07:10;;;;;;;19.10;15.15;;;16.80;99.90;;;;;;6268718;22;20015;-84
2022/09/12 07:09:39;;;;;;;20.48;16.58;;;16.90;99.90;;;;;;6271243;22;20015;-84
2022/09/12 07:12:07;;;;;;;19.05;16.30;;;17.00;99.90;;;;;;6245983;22;20457;-84
2022/09/12 07:14:33;;;;;;;20.42;17.15;;;17.10;99.90;;;;;;6244610;22;20011;-84
2022/09/12 07:16:59;;;;;;;18.90;16.88;;;17.20;99.90;;;;;;6245589;22;20102;-84
2022/09/12 07:19:25;;;;;;;18.23;15.43;;;17.20;99.90;;;;;;6246565;22;20027;-83
2022/09/12 07:21:51;;;;;;;19.08;16.15;;;16.80;99.90;;;;;;6270075;22;20076;-84
2022/09/12 07:24:16;;;;;;;19.15;15.05;;;17.00;99.90;;;;;;6272455;22;20068;-84
2022/09/12 07:26:45;;;;;;;18.63;16.63;;;17.50;99.90;;;;;;6244714;22;20018;-84
2022/09/12 07:29:15;;;;;;;18.95;16.08;;;17.60;99.90;;;;;;6245964;22;20015;-84
2022/09/12 07:31:41;;;;;;;20.55;16.98;;;17.70;99.90;;;;;;6245689;22;20019;-84
2022/09/12 07:34:07;;;;;;;17.10;15.30;;;17.80;99.90;;;;;;6196023;22;20080;-84
2022/09/12 07:36:33;;;;;;;16.65;14.85;;;17.20;99.90;;;;;;6244397;22;20018;-85
2022/09/12 07:39:02;;;;;;;17.45;14.73;;;18.00;99.90;;;;;;6220689;22;20050;-85
2022/09/12 07:41:31;;;;;;;19.38;15.40;;;18.70;99.90;;;;;;6246873;22;20420;-84
2022/09/12 07:43:59;;;;;;;18.85;14.88;;;18.20;99.90;;;;;;6247832;22;20026;-84
2022/09/12 07:46:28;;;;;;;17.58;15.35;;;18.20;99.90;;;;;;6244914;22;20041;-84
2022/09/12 07:48:56;;;;;;;16.67;14.82;;;18.30;99.90;;;;;;6270173;22;20015;-84
2022/09/12 07:51:23;;;;;;;18.00;14.55;;;18.40;99.90;;;;;;6245394;22;20026;-84
2022/09/12 07:53:49;;;;;;;16.98;14.73;;;18.50;99.90;;;;;;6245791;22;20022;-83
2022/09/12 07:56:18;;;;;;;18.63;15.93;;;18.50;99.90;;;;;;6244567;22;20450;-83
2022/09/12 07:58:45;;;;;;;18.17;15.88;;;18.60;99.90;;;;;;6201566;22;20023;-86
2022/09/12 08:01:21;;;;;;;17.52;14.45;;;18.60;99.90;;;;;;6215352;22;20031;-84
2022/09/12 08:03:57;;;;;;;17.00;15.18;;;18.70;99.90;;;;;;6242030;22;20060;-86
2022/09/12 08:06:25;;;;;;;16.83;15.15;;;18.80;99.90;;;;;;6240272;22;20023;-84
2022/09/12 08:08:53;;;;;;;16.70;14.52;;;18.80;99.90;;;;;;6215759;22;20031;-84
2022/09/12 08:11:24;;;;;;;17.85;15.25;;;18.90;99.90;;;;;;6187572;22;20461;-85
2022/09/12 08:13:51;;;;;;;17.85;14.98;;;18.90;99.90;;;;;;6209519;22;20077;-85
2022/09/12 08:16:22;;;;;;;17.90;15.20;;;19.00;99.90;;;;;;6186658;22;20016;-84
2022/09/12 08:18:48;;;;;;;22.38;14.93;;;19.10;99.90;;;;;;6211103;22;20020;-84
2022/09/12 08:21:26;;;;;;;18.00;14.80;;;19.10;99.90;;;;;;6184886;22;20030;-83
2022/09/12 08:23:56;;;;;;;19.05;14.55;;;19.20;99.90;;;;;;6236777;22;20051;-85
2022/09/12 08:26:23;;;;;;;17.17;14.38;;;19.30;99.90;;;;;;6211662;22;20012;-84
2022/09/12 08:28:50;;;;;;;18.25;14.50;;;19.30;99.90;;;;;;6213512;22;20023;-83
2022/09/12 08:31:17;;;;;;;16.45;14.60;;;19.40;99.90;;;;;;6239754;22;20026;-83
2022/09/12 08:33:44;;;;;;;17.48;14.77;;;19.40;99.90;;;;;;6214611;22;20042;-81
2022/09/12 08:36:20;;;;;;;18.95;14.90;;;19.50;99.90;;;;;;6191402;22;20020;-82
2022/09/12 08:38:47;;;;;;;;;;;19.30;99.90;;;;;;6217202;22;20055;-82
2022/09/12 08:41:34;;;;;;;18.80;15.10;;;19.60;99.90;;;;;;6218061;22;19919;-83
2022/09/12 08:44:26;;;;;;;17.27;14.68;;;19.70;99.90;;;;;;6218828;22;20058;-84
2022/09/12 08:47:14;;;;;;;17.40;13.88;;;19.80;99.90;;;;;;6216666;22;20015;-83
2022/09/12 08:49:55;;;;;;;17.90;14.23;;;20.10;99.90;;;;;;6216267;22;20130;-83
2022/09/12 08:52:53;;;;;;;16.13;13.38;;;20.20;99.90;;;;;;6214422;22;20023;-81
2022/09/12 08:55:48;;;;;;;14.90;13.30;;;20.40;99.90;;;;;;6215154;22;20034;-84
2022/09/12 08:58:20;;;;;;;15.02;12.95;;;20.60;99.90;;;;;;6227802;22;20019;-84
2022/09/12 09:00:59;;;;;;;14.77;12.65;;;20.80;99.90;;;;;;6244789;22;20023;-84
2022/09/12 09:03:52;;;;;;;15.20;11.52;;;20.20;99.90;;;;;;6246518;22;20085;-83
2022/09/12 09:06:46;;;;;;;15.27;11.57;;;21.30;99.90;;;;;;6274009;22;20094;-83
2022/09/12 09:09:38;;;;;;;14.95;12.00;;;21.60;99.90;;;;;;6248852;22;20118;-84
2022/09/12 09:12:22;;;;;;;13.15;10.13;;;21.80;99.90;;;;;;6244245;22;20019;-83
2022/09/12 09:14:48;;;;;;;12.98;10.80;;;22.10;99.90;;;;;;6245459;22;20038;-85
2022/09/12 09:17:46;;;;;;;12.88;10.05;;;22.20;99.90;;;;;;6247492;22;20015;-84
2022/09/12 09:20:12;;;;;;;10.50;9.02;;;22.70;99.90;;;;;;6271796;22;20019;-83
2022/09/12 09:22:43;;;;;;;11.25;9.15;;;22.90;99.90;;;;;;6245239;22;20019;-84
2022/09/12 09:25:19;;;;;;;10.48;8.98;;;23.00;99.90;;;;;;6250303;22;20041;-85
2022/09/12 09:28:04;;;;;;;12.40;9.27;;;23.00;99.90;;;;;;6250013;22;20015;-84
2022/09/12 09:30:32;;;;;;;12.93;10.07;;;23.10;99.90;;;;;;6272066;22;20015;-84
2022/09/12 09:33:00;;;;;;;10.70;9.60;;;23.10;99.90;;;;;;6245904;22;20015;-83
2022/09/12 09:35:48;;;;;;;14.32;10.23;;;23.20;99.90;;;;;;6246800;22;20101;-84
2022/09/12 09:38:26;;;;;;;13.32;9.93;;;23.20;99.90;;;;;;6248453;22;20098;-84
2022/09/12 09:40:55;;;;;;;12.05;9.20;;;23.20;99.90;;;;;;6246944;22;20072;-84
2022/09/12 09:43:24;;;;;;;10.15;8.07;;;23.30;99.90;;;;;;6247259;22;20054;-85
2022/09/12 09:45:51;;;;;;;9.85;7.75;;;23.50;99.90;;;;;;6245037;22;20027;-85
2022/09/12 09:48:25;;;;;;;9.40;8.02;;;23.70;99.90;;;;;;6247375;22;20054;-86
2022/09/12 09:50:51;;;;;;;8.73;7.50;;;23.70;99.90;;;;;;6271258;22;20446;-83
2022/09/12 09:53:46;;;;;;;10.60;7.50;;;23.80;99.90;;;;;;6270357;22;20025;-84
2022/09/12 09:56:41;;;;;;;9.40;7.45;;;24.00;99.90;;;;;;6245791;22;20047;-87
2022/09/12 09:59:10;;;;;;;10.18;8.13;;;23.60;99.90;;;;;;6249366;22;20019;-84
2022/09/12 10:02:03;;;;;;;9.85;8.85;;;24.30;99.90;;;;;;6216110;22;20023;-85
2022/09/12 10:04:45;;;;;;;10.00;8.75;;;24.30;99.90;;;;;;6214735;22;20024;-86
2022/09/12 10:07:22;;;;;;;10.90;8.27;;;24.50;99.90;;;;;;6242169;22;20018;-83
2022/09/12 10:10:15;;;;;;;9.10;7.63;;;24.70;99.90;;;;;;6242960;22;20026;-84
2022/09/12 10:12:44;;;;;;;8.63;7.57;;;24.70;99.90;;;;;;6200027;22;20351;-84
2022/09/12 10:15:17;;;;;;;9.27;7.68;;;24.90;99.90;;;;;;6215963;22;20361;-84
2022/09/12 10:17:45;;;;;;;9.85;7.50;;;25.10;99.90;;;;;;6241713;22;20354;-84
2022/09/12 10:20:36;;;;;;;7.50;6.00;;;24.90;99.90;;;;;;6242038;22;20453;-86
2022/09/12 10:23:20;;;;;;;8.98;6.47;;;25.30;99.90;;;;;;6215675;22;20031;-85
2022/09/12 10:26:05;;;;;;;7.88;6.95;;;25.50;99.90;;;;;;6213121;22;20332;-85
2022/09/12 10:28:49;;;;;;;6.78;5.82;;;25.60;99.90;;;;;;6214645;22;20117;-85
2022/09/12 10:31:28;;;;;;;7.38;6.05;;;25.90;99.90;;;;;;6214984;22;20020;-83
2022/09/12 10:33:57;;;;;;;7.53;6.22;;;26.10;99.90;;;;;;6216281;22;20030;-83
2022/09/12 10:36:24;;;;;;;6.80;5.82;;;26.30;99.90;;;;;;6216656;22;20026;-84
2022/09/12 10:38:54;;;;;;;7.32;5.60;;;26.50;99.90;;;;;;6217687;22;20443;-83
2022/09/12 10:41:20;;;;;;;6.47;5.63;;;26.50;99.90;;;;;;6219631;22;20762;-89
2022/09/12 10:44:04;;;;;;;6.53;5.35;;;26.60;99.90;;;;;;6221518;22;20093;-88
2022/09/12 10:46:53;;;;;;;10.70;6.07;;;26.40;99.90;;;;;;6217151;22;20012;-85
2022/09/12 10:49:26;;;;;;;8.15;6.88;;;26.40;99.90;;;;;;6218681;22;20023;-86
2022/09/12 10:51:53;;;;;;;7.65;6.00;;;26.20;99.90;;;;;;6243033;22;20047;-86
2022/09/12 10:54:29;;;;;;;9.48;7.28;;;26.10;99.90;;;;;;6218891;22;20102;-85
2022/09/12 10:57:16;;;;;;;9.93;7.43;;;26.10;99.90;;;;;;6216867;22;20047;-86
2022/09/12 11:00:29;;;;;;;;;;;;;;;;;;;;;
2022/09/12 11:04:06;;;;;;;;;;;;;;;;;;;;;
2022/09/12 11:07:07;;;;;;;9.40;8.00;;;25.30;99.90;;;;;;6149800;23;20021;-88
2022/09/12 11:09:45;;;;;;;9.35;8.23;;;25.00;99.90;;;;;;6052102;23;20862;-87
2022/09/12 11:12:30;;;;;;;10.02;8.93;;;25.80;99.90;;;;;;6227965;22;20460;-88
2022/09/12 11:15:48;;;;;;;11.45;9.98;;;25.80;99.90;;;;;;6272547;22;20027;-87
2022/09/12 11:19:13;;;;;;;11.27;9.25;;;25.80;99.90;;;;;;6180285;23;20167;-87
2022/09/12 11:22:17;;;;;;;10.38;9.10;;;25.90;99.90;;;;;;6067966;23;20116;-87
2022/09/12 11:25:45;;;;;;;10.48;9.38;;;25.70;99.90;;;;;;6155978;23;20028;-87
2022/09/12 11:29:07;;;;;;;10.93;9.73;;;26.50;99.90;;;;;;6175099;23;20073;-88
2022/09/12 11:32:15;;;;;;;9.90;7.90;;;25.60;99.90;;;;;;6150684;23;20021;-88
2022/09/12 11:34:52;;;;;;;10.30;8.75;;;25.80;99.90;;;;;;6062039;23;20093;-87
2022/09/12 11:37:55;;;;;;;11.05;8.82;;;25.70;99.90;;;;;;6144307;23;20027;-85
2022/09/12 11:40:39;;;;;;;12.43;9.43;;;25.70;99.90;;;;;;6224214;22;20015;-85
2022/09/12 11:43:36;;;;;;;11.45;8.93;;;25.40;99.90;;;;;;6270895;22;20146;-86
2022/09/12 11:46:25;;;;;;;9.75;7.35;;;25.60;99.90;;;;;;6271102;22;20015;-86
2022/09/12 11:49:12;;;;;;;11.65;9.27;;;25.10;99.90;;;;;;6248581;22;20015;-85
2022/09/12 11:51:48;;;;;;;9.38;7.90;;;26.00;99.90;;;;;;6247947;22;20197;-83
2022/09/12 11:54:22;;;;;;;10.32;8.77;;;26.30;99.90;;;;;;6246319;22;20117;-85
2022/09/12 11:56:54;;;;;;;11.13;8.95;;;26.50;99.90;;;;;;6271395;22;20019;-87
2022/09/12 11:59:52;;;;;;;10.98;8.40;;;26.90;99.90;;;;;;6229216;22;20024;-86
2022/09/12 12:02:29;;;;;;;9.23;8.32;;;27.00;99.90;;;;;;6240598;22;20058;-85
2022/09/12 12:05:31;;;;;;;10.00;9.00;;;27.40;99.90;;;;;;6241713;22;20018;-85
2022/09/12 12:08:03;;;;;;;9.82;8.77;;;27.30;99.60;;;;;;6215690;22;20339;-85
2022/09/12 12:11:10;;;;;;;10.60;8.05;;;27.90;99.90;;;;;;6214491;22;20026;-87
2022/09/12 12:14:22;;;;;;;9.05;7.63;;;28.10;98.90;;;;;;6156871;22;20016;-85
2022/09/12 12:16:49;;;;;;;10.45;8.25;;;28.40;98.30;;;;;;6211202;22;20243;-85
2022/09/12 12:19:23;;;;;;;9.23;8.32;;;28.60;98.90;;;;;;6191538;22;20026;-85
2022/09/12 12:21:50;;;;;;;8.52;7.63;;;28.60;98.40;;;;;;6242220;22;20741;-85
2022/09/12 12:24:27;;;;;;;13.75;7.72;;;28.60;97.90;;;;;;6215766;22;20482;-86
2022/09/12 12:27:04;;;;;;;9.52;7.40;;;28.60;97.70;;;;;;6242943;22;20035;-85
2022/09/12 12:29:38;;;;;;;8.95;8.02;;;28.70;97.20;;;;;;6218096;22;20055;-86
2022/09/12 12:32:07;;;;;;;8.32;7.47;;;28.80;97.60;;;;;;6217895;22;20023;-85
2022/09/12 12:34:43;;;;;;;10.80;8.60;;;28.90;97.50;;;;;;6217079;22;20024;-86
2022/09/12 12:37:18;;;;;;;10.20;7.97;;;28.80;96.80;;;;;;6216786;22;20016;-86
2022/09/12 12:39:54;;;;;;;8.35;7.50;;;28.70;96.90;;;;;;6243414;22;20020;-86
2022/09/12 12:42:35;;;;;;;9.57;8.43;;;28.70;97.10;;;;;;6241148;22;20055;-85
2022/09/12 12:45:21;;;;;;;8.50;7.30;;;28.70;96.40;;;;;;6216676;22;20016;-85
2022/09/12 12:47:51;;;;;;;8.90;8.00;;;28.70;96.50;;;;;;6240786;22;20012;-85
2022/09/12 12:50:20;;;;;;;9.93;8.05;;;28.70;96.70;;;;;;6239832;22;20451;-85
2022/09/12 12:52:46;;;;;;;8.52;6.90;;;28.70;96.40;;;;;;6214473;22;20070;-85
2022/09/12 12:55:41;;;;;;;10.93;7.38;;;28.90;96.40;;;;;;6213569;22;20275;-85
2022/09/12 12:58:35;;;;;;;8.75;7.78;;;29.00;95.10;;;;;;6187930;22;20020;-85
2022/09/12 13:01:19;;;;;;;10.05;6.72;;;29.00;95.00;;;;;;6272618;22;20081;-85
2022/09/12 13:03:57;;;;;;;9.60;7.00;;;29.10;95.00;;;;;;6250311;22;20019;-84
2022/09/12 13:06:43;;;;;;;47.55;9.80;;;28.90;95.40;;;;;;6250014;22;20080;-85
2022/09/12 13:09:44;;;;;;;9.05;7.00;;;28.80;95.00;;;;;;6247902;22;20020;-84
2022/09/12 13:12:25;;;;;;;8.98;7.15;;;28.70;94.60;;;;;;6232606;22;20023;-85
2022/09/12 13:14:59;;;;;;;15.90;6.20;;;28.70;95.10;;;;;;6247856;22;20084;-84
2022/09/12 13:17:43;;;;;;;7.32;6.45;;;28.30;95.20;;;;;;6274166;22;20027;-82
2022/09/12 13:20:12;;;;;;;7.63;5.72;;;28.50;94.80;;;;;;6273343;22;20382;-82
2022/09/12 13:22:41;;;;;;;7.50;6.13;;;28.40;94.70;;;;;;6248663;22;20438;-83
2022/09/12 13:25:34;;;;;;;7.32;5.43;;;28.40;94.60;;;;;;6273066;22;20389;-83
2022/09/12 13:27:59;;;;;;;6.15;5.22;;;28.60;94.40;;;;;;6274055;22;20019;-82
2022/09/12 13:30:28;;;;;;;6.95;6.25;;;28.60;94.80;;;;;;6249851;22;20095;-82
2022/09/12 13:32:57;;;;;;;7.60;5.78;;;28.70;94.70;;;;;;6250827;22;20019;-82
2022/09/12 13:35:34;;;;;;;6.57;5.97;;;27.90;94.30;;;;;;6249919;22;20015;-82
2022/09/12 13:38:12;;;;;;;7.55;6.53;;;28.50;94.40;;;;;;6250184;22;20102;-82